sensor_id;sensor_type;location;lat;lon;timestamp;P1;durP1;ratioP1;P2;durP2;ratioP2
495;SDS011;39559;48.630;9.162;2024-01-30T00:01:35;12.73;;;10.00;;
495;SDS011;39559;48.630;9.162;2024-01-30T00:04:01;11.57;;;9.73;;
495;SDS011;39559;48.630;9.162;2024-01-30T00:06:27;12.80;;;10.25;;
495;SDS011;39559;48.630;9.162;2024-01-30T00:08:53;11.07;;;9.90;;
495;SDS011;39559;48.630;9.162;2024-01-30T00:11:18;15.87;;;10.63;;
495;SDS011;39559;48.630;9.162;2024-01-30T00:13:44;11.67;;;10.47;;
495;SDS011;39559;48.630;9.162;2024-01-30T00:18:20;11.65;;;10.45;;
495;SDS011;39559;48.630;9.162;2024-01-30T00:20:46;13.18;;;9.55;;
495;SDS011;39559;48.630;9.162;2024-01-30T00:23:12;11.33;;;9.60;;
495;SDS011;39559;48.630;9.162;2024-01-30T00:25:38;12.70;;;9.95;;
495;SDS011;39559;48.630;9.162;2024-01-30T00:28:04;10.47;;;9.37;;
495;SDS011;39559;48.630;9.162;2024-01-30T00:30:29;11.30;;;9.90;;
495;SDS011;39559;48.630;9.162;2024-01-30T00:32:55;10.53;;;8.70;;
495;SDS011;39559;48.630;9.162;2024-01-30T00:35:20;10.10;;;8.47;;
495;SDS011;39559;48.630;9.162;2024-01-30T00:37:48;17.00;;;10.18;;
495;SDS011;39559;48.630;9.162;2024-01-30T00:42:22;10.80;;;9.07;;
495;SDS011;39559;48.630;9.162;2024-01-30T00:44:49;11.02;;;9.90;;
495;SDS011;39559;48.630;9.162;2024-01-30T00:47:14;14.93;;;10.57;;
495;SDS011;39559;48.630;9.162;2024-01-30T00:49:40;13.57;;;10.37;;
495;SDS011;39559;48.630;9.162;2024-01-30T00:52:06;15.60;;;10.87;;
495;SDS011;39559;48.630;9.162;2024-01-30T00:54:31;16.23;;;11.70;;
495;SDS011;39559;48.630;9.162;2024-01-30T00:56:57;12.63;;;10.67;;
495;SDS011;39559;48.630;9.162;2024-01-30T00:59:22;11.23;;;9.37;;
495;SDS011;39559;48.630;9.162;2024-01-30T01:01:48;10.67;;;9.37;;
495;SDS011;39559;48.630;9.162;2024-01-30T01:06:23;9.98;;;8.60;;
495;SDS011;39559;48.630;9.162;2024-01-30T01:08:48;12.40;;;9.60;;
495;SDS011;39559;48.630;9.162;2024-01-30T01:11:14;11.30;;;9.73;;
495;SDS011;39559;48.630;9.162;2024-01-30T01:13:40;9.90;;;8.88;;
495;SDS011;39559;48.630;9.162;2024-01-30T01:16:06;18.87;;;9.57;;
495;SDS011;39559;48.630;9.162;2024-01-30T01:18:31;12.40;;;9.70;;
495;SDS011;39559;48.630;9.162;2024-01-30T01:20:57;11.03;;;9.90;;
495;SDS011;39559;48.630;9.162;2024-01-30T01:23:22;9.90;;;8.90;;
495;SDS011;39559;48.630;9.162;2024-01-30T01:25:48;11.83;;;9.10;;
495;SDS011;39559;48.630;9.162;2024-01-30T01:30:24;9.55;;;8.60;;
495;SDS011;39559;48.630;9.162;2024-01-30T01:32:51;12.77;;;10.30;;
495;SDS011;39559;48.630;9.162;2024-01-30T01:35:23;10.80;;;9.63;;
495;SDS011;39559;48.630;9.162;2024-01-30T01:37:53;13.30;;;10.73;;
495;SDS011;39559;48.630;9.162;2024-01-30T01:40:23;10.70;;;9.70;;
495;SDS011;39559;48.630;9.162;2024-01-30T01:42:53;13.00;;;10.40;;
495;SDS011;39559;48.630;9.162;2024-01-30T01:45:20;10.30;;;9.18;;
495;SDS011;39559;48.630;9.162;2024-01-30T01:47:47;14.93;;;9.25;;
495;SDS011;39559;48.630;9.162;2024-01-30T01:50:16;10.93;;;9.05;;
495;SDS011;39559;48.630;9.162;2024-01-30T01:54:25;10.85;;;9.20;;
495;SDS011;39559;48.630;9.162;2024-01-30T01:56:52;10.75;;;8.90;;
495;SDS011;39559;48.630;9.162;2024-01-30T01:59:18;10.63;;;9.63;;
495;SDS011;39559;48.630;9.162;2024-01-30T02:01:45;10.88;;;9.77;;
495;SDS011;39559;48.630;9.162;2024-01-30T02:04:14;12.48;;;10.32;;
495;SDS011;39559;48.630;9.162;2024-01-30T02:06:41;11.00;;;9.35;;
495;SDS011;39559;48.630;9.162;2024-01-30T02:09:07;12.25;;;9.00;;
495;SDS011;39559;48.630;9.162;2024-01-30T02:11:34;9.48;;;8.45;;
495;SDS011;39559;48.630;9.162;2024-01-30T02:14:03;10.37;;;8.70;;
495;SDS011;39559;48.630;9.162;2024-01-30T02:18:28;12.15;;;8.65;;
495;SDS011;39559;48.630;9.162;2024-01-30T02:20:54;12.50;;;9.80;;
495;SDS011;39559;48.630;9.162;2024-01-30T02:23:24;11.07;;;9.38;;
495;SDS011;39559;48.630;9.162;2024-01-30T02:25:52;13.30;;;8.50;;
495;SDS011;39559;48.630;9.162;2024-01-30T02:28:19;11.97;;;9.10;;
495;SDS011;39559;48.630;9.162;2024-01-30T02:30:45;9.65;;;8.15;;
495;SDS011;39559;48.630;9.162;2024-01-30T02:33:12;9.73;;;8.70;;
495;SDS011;39559;48.630;9.162;2024-01-30T02:35:38;10.70;;;9.13;;
495;SDS011;39559;48.630;9.162;2024-01-30T02:38:03;10.80;;;9.07;;
495;SDS011;39559;48.630;9.162;2024-01-30T02:42:30;9.40;;;8.50;;
495;SDS011;39559;48.630;9.162;2024-01-30T02:44:55;9.17;;;7.40;;
495;SDS011;39559;48.630;9.162;2024-01-30T02:47:21;10.63;;;9.50;;
495;SDS011;39559;48.630;9.162;2024-01-30T02:49:46;11.90;;;9.73;;
495;SDS011;39559;48.630;9.162;2024-01-30T02:52:12;10.27;;;9.10;;
495;SDS011;39559;48.630;9.162;2024-01-30T02:54:37;13.13;;;8.53;;
495;SDS011;39559;48.630;9.162;2024-01-30T02:57:03;10.47;;;9.40;;
495;SDS011;39559;48.630;9.162;2024-01-30T02:59:28;11.20;;;8.97;;
495;SDS011;39559;48.630;9.162;2024-01-30T03:01:54;12.47;;;9.27;;
495;SDS011;39559;48.630;9.162;2024-01-30T03:06:31;14.32;;;10.00;;
495;SDS011;39559;48.630;9.162;2024-01-30T03:08:57;19.20;;;13.50;;
495;SDS011;39559;48.630;9.162;2024-01-30T03:11:22;15.10;;;9.60;;
495;SDS011;39559;48.630;9.162;2024-01-30T03:13:48;9.70;;;8.60;;
495;SDS011;39559;48.630;9.162;2024-01-30T03:16:13;10.20;;;8.40;;
495;SDS011;39559;48.630;9.162;2024-01-30T03:18:39;9.63;;;8.07;;
495;SDS011;39559;48.630;9.162;2024-01-30T03:21:04;9.60;;;8.67;;
495;SDS011;39559;48.630;9.162;2024-01-30T03:23:30;10.03;;;8.27;;
495;SDS011;39559;48.630;9.162;2024-01-30T03:25:57;9.82;;;8.80;;
495;SDS011;39559;48.630;9.162;2024-01-30T03:30:34;13.05;;;9.52;;
495;SDS011;39559;48.630;9.162;2024-01-30T03:32:59;11.50;;;9.55;;
495;SDS011;39559;48.630;9.162;2024-01-30T03:35:25;13.33;;;9.33;;
495;SDS011;39559;48.630;9.162;2024-01-30T03:37:50;9.73;;;8.03;;
495;SDS011;39559;48.630;9.162;2024-01-30T03:40:16;12.00;;;8.40;;
495;SDS011;39559;48.630;9.162;2024-01-30T03:42:42;9.60;;;8.30;;
495;SDS011;39559;48.630;9.162;2024-01-30T03:45:07;9.93;;;8.80;;
495;SDS011;39559;48.630;9.162;2024-01-30T03:47:33;9.63;;;8.50;;
495;SDS011;39559;48.630;9.162;2024-01-30T03:49:59;12.50;;;8.93;;
495;SDS011;39559;48.630;9.162;2024-01-30T03:54:35;14.90;;;9.05;;
495;SDS011;39559;48.630;9.162;2024-01-30T03:57:01;9.90;;;8.97;;
495;SDS011;39559;48.630;9.162;2024-01-30T03:59:26;11.70;;;8.40;;
495;SDS011;39559;48.630;9.162;2024-01-30T04:01:51;12.67;;;9.10;;
495;SDS011;39559;48.630;9.162;2024-01-30T04:04:17;13.53;;;8.70;;
495;SDS011;39559;48.630;9.162;2024-01-30T04:06:44;11.48;;;9.07;;
495;SDS011;39559;48.630;9.162;2024-01-30T04:09:10;9.52;;;8.00;;
495;SDS011;39559;48.630;9.162;2024-01-30T04:11:36;12.15;;;8.80;;
495;SDS011;39559;48.630;9.162;2024-01-30T04:14:02;11.10;;;8.73;;
495;SDS011;39559;48.630;9.162;2024-01-30T04:18:37;10.88;;;9.15;;
495;SDS011;39559;48.630;9.162;2024-01-30T04:21:03;13.00;;;9.57;;
495;SDS011;39559;48.630;9.162;2024-01-30T04:23:28;9.57;;;8.60;;
495;SDS011;39559;48.630;9.162;2024-01-30T04:25:54;10.50;;;8.23;;
495;SDS011;39559;48.630;9.162;2024-01-30T04:28:19;11.10;;;8.80;;
495;SDS011;39559;48.630;9.162;2024-01-30T04:30:45;8.80;;;7.90;;
495;SDS011;39559;48.630;9.162;2024-01-30T04:33:10;9.63;;;8.60;;
495;SDS011;39559;48.630;9.162;2024-01-30T04:35:36;12.33;;;9.17;;
495;SDS011;39559;48.630;9.162;2024-01-30T04:38:02;9.73;;;8.20;;
495;SDS011;39559;48.630;9.162;2024-01-30T04:42:39;13.48;;;10.27;;
495;SDS011;39559;48.630;9.162;2024-01-30T04:45:05;13.40;;;10.67;;
495;SDS011;39559;48.630;9.162;2024-01-30T04:47:31;12.98;;;9.80;;
495;SDS011;39559;48.630;9.162;2024-01-30T04:49:56;11.90;;;9.67;;
495;SDS011;39559;48.630;9.162;2024-01-30T04:52:22;14.13;;;10.37;;
495;SDS011;39559;48.630;9.162;2024-01-30T04:54:47;17.07;;;12.90;;
495;SDS011;39559;48.630;9.162;2024-01-30T04:57:13;14.37;;;9.57;;
495;SDS011;39559;48.630;9.162;2024-01-30T04:59:39;11.97;;;10.77;;
495;SDS011;39559;48.630;9.162;2024-01-30T05:02:04;11.90;;;10.70;;
495;SDS011;39559;48.630;9.162;2024-01-30T05:06:41;15.00;;;11.35;;
495;SDS011;39559;48.630;9.162;2024-01-30T05:09:07;14.00;;;10.80;;
495;SDS011;39559;48.630;9.162;2024-01-30T05:11:39;14.70;;;11.20;;
495;SDS011;39559;48.630;9.162;2024-01-30T05:14:05;14.80;;;10.45;;
495;SDS011;39559;48.630;9.162;2024-01-30T05:16:31;12.25;;;10.70;;
495;SDS011;39559;48.630;9.162;2024-01-30T05:18:57;15.77;;;10.87;;
495;SDS011;39559;48.630;9.162;2024-01-30T05:21:24;11.82;;;10.27;;
495;SDS011;39559;48.630;9.162;2024-01-30T05:23:50;16.27;;;10.97;;
495;SDS011;39559;48.630;9.162;2024-01-30T05:26:15;15.43;;;12.47;;
495;SDS011;39559;48.630;9.162;2024-01-30T05:30:43;17.70;;;11.77;;
495;SDS011;39559;48.630;9.162;2024-01-30T05:33:09;14.40;;;12.17;;
495;SDS011;39559;48.630;9.162;2024-01-30T05:35:37;11.35;;;10.15;;
495;SDS011;39559;48.630;9.162;2024-01-30T05:38:03;12.03;;;9.53;;
495;SDS011;39559;48.630;9.162;2024-01-30T05:40:28;15.30;;;10.60;;
495;SDS011;39559;48.630;9.162;2024-01-30T05:42:54;13.83;;;9.80;;
495;SDS011;39559;48.630;9.162;2024-01-30T05:45:19;11.30;;;9.23;;
495;SDS011;39559;48.630;9.162;2024-01-30T05:47:45;11.40;;;9.17;;
495;SDS011;39559;48.630;9.162;2024-01-30T05:50:10;13.17;;;10.83;;
495;SDS011;39559;48.630;9.162;2024-01-30T05:54:46;14.82;;;11.98;;
495;SDS011;39559;48.630;9.162;2024-01-30T05:57:12;11.48;;;9.57;;
495;SDS011;39559;48.630;9.162;2024-01-30T05:59:37;12.43;;;9.50;;
495;SDS011;39559;48.630;9.162;2024-01-30T06:02:03;11.10;;;9.37;;
495;SDS011;39559;48.630;9.162;2024-01-30T06:04:28;12.23;;;9.33;;
495;SDS011;39559;48.630;9.162;2024-01-30T06:06:54;12.70;;;9.70;;
495;SDS011;39559;48.630;9.162;2024-01-30T06:09:20;12.23;;;9.43;;
495;SDS011;39559;48.630;9.162;2024-01-30T06:11:46;13.70;;;9.60;;
495;SDS011;39559;48.630;9.162;2024-01-30T06:14:11;9.77;;;8.27;;
495;SDS011;39559;48.630;9.162;2024-01-30T06:18:48;9.23;;;7.68;;
495;SDS011;39559;48.630;9.162;2024-01-30T06:21:13;12.20;;;8.20;;
495;SDS011;39559;48.630;9.162;2024-01-30T06:23:39;9.90;;;8.10;;
495;SDS011;39559;48.630;9.162;2024-01-30T06:26:09;10.13;;;9.10;;
495;SDS011;39559;48.630;9.162;2024-01-30T06:28:35;15.02;;;12.23;;
495;SDS011;39559;48.630;9.162;2024-01-30T06:31:01;15.93;;;11.90;;
495;SDS011;39559;48.630;9.162;2024-01-30T06:33:27;14.17;;;11.03;;
495;SDS011;39559;48.630;9.162;2024-01-30T06:35:52;13.33;;;11.93;;
495;SDS011;39559;48.630;9.162;2024-01-30T06:38:18;13.87;;;11.07;;
495;SDS011;39559;48.630;9.162;2024-01-30T06:42:50;14.05;;;10.60;;
495;SDS011;39559;48.630;9.162;2024-01-30T06:45:15;13.17;;;10.00;;
495;SDS011;39559;48.630;9.162;2024-01-30T06:47:41;14.20;;;10.60;;
495;SDS011;39559;48.630;9.162;2024-01-30T06:50:06;13.80;;;10.73;;
495;SDS011;39559;48.630;9.162;2024-01-30T06:52:32;12.95;;;10.70;;
495;SDS011;39559;48.630;9.162;2024-01-30T06:54:58;14.90;;;11.27;;
495;SDS011;39559;48.630;9.162;2024-01-30T06:57:24;13.83;;;11.20;;
495;SDS011;39559;48.630;9.162;2024-01-30T06:59:49;14.13;;;10.40;;
495;SDS011;39559;48.630;9.162;2024-01-30T07:02:15;12.33;;;10.90;;
495;SDS011;39559;48.630;9.162;2024-01-30T07:06:52;13.88;;;10.88;;
495;SDS011;39559;48.630;9.162;2024-01-30T07:09:18;13.38;;;10.43;;
495;SDS011;39559;48.630;9.162;2024-01-30T07:11:44;13.77;;;10.67;;
495;SDS011;39559;48.630;9.162;2024-01-30T07:14:10;11.23;;;9.90;;
495;SDS011;39559;48.630;9.162;2024-01-30T07:16:35;12.03;;;9.70;;
495;SDS011;39559;48.630;9.162;2024-01-30T07:19:01;12.00;;;9.40;;
495;SDS011;39559;48.630;9.162;2024-01-30T07:21:27;13.50;;;8.68;;
495;SDS011;39559;48.630;9.162;2024-01-30T07:23:54;11.82;;;9.18;;
495;SDS011;39559;48.630;9.162;2024-01-30T07:26:20;12.38;;;10.23;;
495;SDS011;39559;48.630;9.162;2024-01-30T07:30:55;15.18;;;9.68;;
495;SDS011;39559;48.630;9.162;2024-01-30T07:33:20;12.70;;;9.60;;
495;SDS011;39559;48.630;9.162;2024-01-30T07:35:46;14.57;;;10.47;;
495;SDS011;39559;48.630;9.162;2024-01-30T07:38:12;14.00;;;10.80;;
495;SDS011;39559;48.630;9.162;2024-01-30T07:40:37;15.77;;;10.80;;
495;SDS011;39559;48.630;9.162;2024-01-30T07:43:03;11.53;;;10.30;;
495;SDS011;39559;48.630;9.162;2024-01-30T07:45:29;15.97;;;11.03;;
495;SDS011;39559;48.630;9.162;2024-01-30T07:47:58;12.40;;;11.10;;
495;SDS011;39559;48.630;9.162;2024-01-30T07:50:25;15.55;;;11.38;;
495;SDS011;39559;48.630;9.162;2024-01-30T07:55:03;14.40;;;11.00;;
495;SDS011;39559;48.630;9.162;2024-01-30T07:57:29;12.23;;;9.73;;
495;SDS011;39559;48.630;9.162;2024-01-30T07:59:54;16.23;;;12.70;;
495;SDS011;39559;48.630;9.162;2024-01-30T08:02:20;23.00;;;12.17;;
495;SDS011;39559;48.630;9.162;2024-01-30T08:04:46;20.10;;;14.00;;
495;SDS011;39559;48.630;9.162;2024-01-30T08:07:14;17.63;;;13.52;;
495;SDS011;39559;48.630;9.162;2024-01-30T08:09:39;19.87;;;14.00;;
495;SDS011;39559;48.630;9.162;2024-01-30T08:12:05;17.40;;;13.23;;
495;SDS011;39559;48.630;9.162;2024-01-30T08:14:30;17.97;;;14.47;;
495;SDS011;39559;48.630;9.162;2024-01-30T08:18:59;17.05;;;13.35;;
495;SDS011;39559;48.630;9.162;2024-01-30T08:21:26;23.85;;;17.25;;
495;SDS011;39559;48.630;9.162;2024-01-30T08:23:52;20.77;;;18.50;;
495;SDS011;39559;48.630;9.162;2024-01-30T08:26:17;24.90;;;22.00;;
495;SDS011;39559;48.630;9.162;2024-01-30T08:28:43;21.67;;;18.77;;
495;SDS011;39559;48.630;9.162;2024-01-30T08:31:10;20.13;;;16.70;;
495;SDS011;39559;48.630;9.162;2024-01-30T08:33:37;23.15;;;18.50;;
495;SDS011;39559;48.630;9.162;2024-01-30T08:36:02;22.10;;;18.23;;
495;SDS011;39559;48.630;9.162;2024-01-30T08:38:28;22.73;;;16.23;;
495;SDS011;39559;48.630;9.162;2024-01-30T08:43:02;21.00;;;18.10;;
495;SDS011;39559;48.630;9.162;2024-01-30T08:45:29;23.58;;;17.83;;
495;SDS011;39559;48.630;9.162;2024-01-30T08:47:56;24.15;;;18.88;;
495;SDS011;39559;48.630;9.162;2024-01-30T08:50:21;19.92;;;13.82;;
495;SDS011;39559;48.630;9.162;2024-01-30T08:52:47;21.00;;;15.77;;
495;SDS011;39559;48.630;9.162;2024-01-30T08:55:13;20.00;;;15.40;;
495;SDS011;39559;48.630;9.162;2024-01-30T08:57:38;16.20;;;14.20;;
495;SDS011;39559;48.630;9.162;2024-01-30T09:00:04;17.40;;;12.97;;
495;SDS011;39559;48.630;9.162;2024-01-30T09:02:32;19.20;;;13.30;;
495;SDS011;39559;48.630;9.162;2024-01-30T09:07:04;24.92;;;16.50;;
495;SDS011;39559;48.630;9.162;2024-01-30T09:09:33;19.73;;;16.80;;
495;SDS011;39559;48.630;9.162;2024-01-30T09:11:59;20.13;;;17.80;;
495;SDS011;39559;48.630;9.162;2024-01-30T09:14:29;32.78;;;24.95;;
495;SDS011;39559;48.630;9.162;2024-01-30T09:16:55;28.83;;;22.98;;
495;SDS011;39559;48.630;9.162;2024-01-30T09:19:21;25.97;;;20.50;;
495;SDS011;39559;48.630;9.162;2024-01-30T09:21:47;21.27;;;18.03;;
495;SDS011;39559;48.630;9.162;2024-01-30T09:24:12;19.77;;;16.40;;
495;SDS011;39559;48.630;9.162;2024-01-30T09:26:38;17.97;;;15.03;;
495;SDS011;39559;48.630;9.162;2024-01-30T09:31:09;17.85;;;15.20;;
495;SDS011;39559;48.630;9.162;2024-01-30T09:33:35;17.23;;;13.05;;
495;SDS011;39559;48.630;9.162;2024-01-30T09:36:01;17.33;;;14.27;;
495;SDS011;39559;48.630;9.162;2024-01-30T09:38:27;16.40;;;13.70;;
495;SDS011;39559;48.630;9.162;2024-01-30T09:40:53;19.57;;;14.97;;
495;SDS011;39559;48.630;9.162;2024-01-30T09:43:23;19.38;;;16.38;;
495;SDS011;39559;48.630;9.162;2024-01-30T09:45:51;20.90;;;16.25;;
495;SDS011;39559;48.630;9.162;2024-01-30T09:48:19;22.33;;;17.15;;
495;SDS011;39559;48.630;9.162;2024-01-30T09:50:45;25.77;;;18.47;;
495;SDS011;39559;48.630;9.162;2024-01-30T09:55:09;22.83;;;19.42;;
495;SDS011;39559;48.630;9.162;2024-01-30T09:57:35;25.40;;;18.87;;
495;SDS011;39559;48.630;9.162;2024-01-30T10:00:02;23.92;;;18.27;;
495;SDS011;39559;48.630;9.162;2024-01-30T10:02:31;20.52;;;17.70;;
495;SDS011;39559;48.630;9.162;2024-01-30T10:04:57;21.02;;;17.88;;
495;SDS011;39559;48.630;9.162;2024-01-30T10:07:22;23.13;;;19.00;;
495;SDS011;39559;48.630;9.162;2024-01-30T10:09:48;23.90;;;19.30;;
495;SDS011;39559;48.630;9.162;2024-01-30T10:12:15;22.90;;;18.67;;
495;SDS011;39559;48.630;9.162;2024-01-30T10:14:41;18.40;;;14.25;;
495;SDS011;39559;48.630;9.162;2024-01-30T10:19:11;16.70;;;13.70;;
495;SDS011;39559;48.630;9.162;2024-01-30T10:21:37;15.77;;;12.40;;
495;SDS011;39559;48.630;9.162;2024-01-30T10:24:02;15.87;;;13.17;;
495;SDS011;39559;48.630;9.162;2024-01-30T10:26:28;14.13;;;12.00;;
495;SDS011;39559;48.630;9.162;2024-01-30T10:28:54;14.23;;;11.27;;
495;SDS011;39559;48.630;9.162;2024-01-30T10:31:20;11.85;;;10.10;;
495;SDS011;39559;48.630;9.162;2024-01-30T10:33:46;12.17;;;9.60;;
495;SDS011;39559;48.630;9.162;2024-01-30T10:36:13;15.93;;;9.90;;
495;SDS011;39559;48.630;9.162;2024-01-30T10:38:42;12.77;;;10.20;;
495;SDS011;39559;48.630;9.162;2024-01-30T10:43:13;12.05;;;9.98;;
495;SDS011;39559;48.630;9.162;2024-01-30T10:45:45;13.45;;;9.43;;
495;SDS011;39559;48.630;9.162;2024-01-30T10:48:14;12.48;;;9.75;;
495;SDS011;39559;48.630;9.162;2024-01-30T10:50:44;16.80;;;12.40;;
495;SDS011;39559;48.630;9.162;2024-01-30T10:53:10;16.88;;;12.30;;
495;SDS011;39559;48.630;9.162;2024-01-30T10:55:38;16.23;;;13.85;;
495;SDS011;39559;48.630;9.162;2024-01-30T10:58:05;16.63;;;14.43;;
495;SDS011;39559;48.630;9.162;2024-01-30T11:00:30;16.53;;;13.70;;
495;SDS011;39559;48.630;9.162;2024-01-30T11:02:58;20.05;;;14.75;;
495;SDS011;39559;48.630;9.162;2024-01-30T11:07:16;23.23;;;19.08;;
495;SDS011;39559;48.630;9.162;2024-01-30T11:09:49;21.58;;;18.67;;
495;SDS011;39559;48.630;9.162;2024-01-30T11:12:16;21.95;;;17.20;;
495;SDS011;39559;48.630;9.162;2024-01-30T11:14:42;19.53;;;16.10;;
495;SDS011;39559;48.630;9.162;2024-01-30T11:17:09;18.42;;;14.40;;
495;SDS011;39559;48.630;9.162;2024-01-30T11:19:37;17.50;;;15.32;;
495;SDS011;39559;48.630;9.162;2024-01-30T11:22:03;19.53;;;15.00;;
495;SDS011;39559;48.630;9.162;2024-01-30T11:24:36;15.38;;;13.35;;
495;SDS011;39559;48.630;9.162;2024-01-30T11:27:07;20.75;;;15.90;;
495;SDS011;39559;48.630;9.162;2024-01-30T11:31:18;15.63;;;13.57;;
495;SDS011;39559;48.630;9.162;2024-01-30T11:33:44;21.17;;;15.32;;
495;SDS011;39559;48.630;9.162;2024-01-30T11:36:10;16.90;;;13.37;;
495;SDS011;39559;48.630;9.162;2024-01-30T11:38:38;14.05;;;12.18;;
495;SDS011;39559;48.630;9.162;2024-01-30T11:41:04;13.90;;;12.43;;
495;SDS011;39559;48.630;9.162;2024-01-30T11:43:30;17.07;;;13.67;;
495;SDS011;39559;48.630;9.162;2024-01-30T11:45:55;20.40;;;16.50;;
495;SDS011;39559;48.630;9.162;2024-01-30T11:48:21;18.73;;;13.33;;
495;SDS011;39559;48.630;9.162;2024-01-30T11:50:47;15.53;;;13.30;;
495;SDS011;39559;48.630;9.162;2024-01-30T11:55:19;17.70;;;13.70;;
495;SDS011;39559;48.630;9.162;2024-01-30T11:57:45;14.50;;;13.10;;
495;SDS011;39559;48.630;9.162;2024-01-30T12:00:14;14.43;;;12.90;;
495;SDS011;39559;48.630;9.162;2024-01-30T12:02:41;13.23;;;11.85;;
495;SDS011;39559;48.630;9.162;2024-01-30T12:05:07;17.05;;;12.38;;
495;SDS011;39559;48.630;9.162;2024-01-30T12:07:33;12.20;;;10.20;;
495;SDS011;39559;48.630;9.162;2024-01-30T12:09:59;13.70;;;11.45;;
495;SDS011;39559;48.630;9.162;2024-01-30T12:12:25;12.88;;;11.60;;
495;SDS011;39559;48.630;9.162;2024-01-30T12:14:52;14.90;;;11.38;;
495;SDS011;39559;48.630;9.162;2024-01-30T12:19:25;15.32;;;11.23;;
495;SDS011;39559;48.630;9.162;2024-01-30T12:21:55;12.50;;;10.30;;
495;SDS011;39559;48.630;9.162;2024-01-30T12:24:23;12.38;;;10.13;;
495;SDS011;39559;48.630;9.162;2024-01-30T12:26:52;9.82;;;8.80;;
495;SDS011;39559;48.630;9.162;2024-01-30T12:29:22;10.25;;;8.90;;
495;SDS011;39559;48.630;9.162;2024-01-30T12:31:48;11.30;;;9.60;;
495;SDS011;39559;48.630;9.162;2024-01-30T12:34:14;10.40;;;8.53;;
495;SDS011;39559;48.630;9.162;2024-01-30T12:36:41;8.50;;;7.43;;
495;SDS011;39559;48.630;9.162;2024-01-30T12:39:10;7.93;;;7.18;;
495;SDS011;39559;48.630;9.162;2024-01-30T12:43:24;11.00;;;8.38;;
495;SDS011;39559;48.630;9.162;2024-01-30T12:45:52;8.63;;;7.75;;
495;SDS011;39559;48.630;9.162;2024-01-30T12:48:18;10.60;;;8.70;;
495;SDS011;39559;48.630;9.162;2024-01-30T12:50:43;6.10;;;5.57;;
495;SDS011;39559;48.630;9.162;2024-01-30T12:53:09;4.93;;;4.50;;
495;SDS011;39559;48.630;9.162;2024-01-30T12:55:35;5.83;;;5.20;;
495;SDS011;39559;48.630;9.162;2024-01-30T12:58:01;5.60;;;5.10;;
495;SDS011;39559;48.630;9.162;2024-01-30T13:00:27;5.43;;;4.93;;
495;SDS011;39559;48.630;9.162;2024-01-30T13:02:52;5.03;;;4.60;;
495;SDS011;39559;48.630;9.162;2024-01-30T13:07:22;4.15;;;3.75;;
495;SDS011;39559;48.630;9.162;2024-01-30T13:09:48;4.80;;;4.20;;
495;SDS011;39559;48.630;9.162;2024-01-30T13:12:13;4.10;;;3.70;;
495;SDS011;39559;48.630;9.162;2024-01-30T13:14:39;3.37;;;3.03;;
495;SDS011;39559;48.630;9.162;2024-01-30T13:17:04;5.00;;;3.50;;
495;SDS011;39559;48.630;9.162;2024-01-30T13:19:30;4.27;;;3.63;;
495;SDS011;39559;48.630;9.162;2024-01-30T13:21:55;4.23;;;3.40;;
495;SDS011;39559;48.630;9.162;2024-01-30T13:24:21;4.50;;;4.10;;
495;SDS011;39559;48.630;9.162;2024-01-30T13:26:47;5.90;;;4.27;;
495;SDS011;39559;48.630;9.162;2024-01-30T13:31:23;4.93;;;4.53;;
495;SDS011;39559;48.630;9.162;2024-01-30T13:33:48;4.47;;;4.07;;
495;SDS011;39559;48.630;9.162;2024-01-30T13:36:14;5.80;;;3.50;;
495;SDS011;39559;48.630;9.162;2024-01-30T13:38:40;3.70;;;3.40;;
495;SDS011;39559;48.630;9.162;2024-01-30T13:41:05;4.67;;;3.60;;
495;SDS011;39559;48.630;9.162;2024-01-30T13:43:31;3.87;;;3.50;;
495;SDS011;39559;48.630;9.162;2024-01-30T13:45:57;3.40;;;3.10;;
495;SDS011;39559;48.630;9.162;2024-01-30T13:48:22;3.50;;;3.10;;
495;SDS011;39559;48.630;9.162;2024-01-30T13:50:48;3.10;;;2.80;;
495;SDS011;39559;48.630;9.162;2024-01-30T13:55:23;4.70;;;4.22;;
495;SDS011;39559;48.630;9.162;2024-01-30T13:57:49;4.00;;;3.60;;
495;SDS011;39559;48.630;9.162;2024-01-30T14:00:15;3.73;;;3.40;;
495;SDS011;39559;48.630;9.162;2024-01-30T14:02:41;5.03;;;3.65;;
495;SDS011;39559;48.630;9.162;2024-01-30T14:05:07;3.78;;;3.47;;
495;SDS011;39559;48.630;9.162;2024-01-30T14:07:35;3.70;;;3.40;;
495;SDS011;39559;48.630;9.162;2024-01-30T14:10:01;3.70;;;3.30;;
495;SDS011;39559;48.630;9.162;2024-01-30T14:12:26;4.10;;;3.80;;
495;SDS011;39559;48.630;9.162;2024-01-30T14:14:52;4.57;;;3.50;;
495;SDS011;39559;48.630;9.162;2024-01-30T14:19:23;5.03;;;3.78;;
495;SDS011;39559;48.630;9.162;2024-01-30T14:21:48;4.80;;;3.97;;
495;SDS011;39559;48.630;9.162;2024-01-30T14:24:14;3.90;;;3.60;;
495;SDS011;39559;48.630;9.162;2024-01-30T14:26:39;4.50;;;4.13;;
495;SDS011;39559;48.630;9.162;2024-01-30T14:29:05;5.60;;;3.70;;
495;SDS011;39559;48.630;9.162;2024-01-30T14:31:30;5.03;;;3.67;;
495;SDS011;39559;48.630;9.162;2024-01-30T14:33:56;4.73;;;3.40;;
495;SDS011;39559;48.630;9.162;2024-01-30T14:36:21;5.67;;;3.80;;
495;SDS011;39559;48.630;9.162;2024-01-30T14:38:47;4.03;;;3.63;;
495;SDS011;39559;48.630;9.162;2024-01-30T14:43:23;3.75;;;3.42;;
495;SDS011;39559;48.630;9.162;2024-01-30T14:45:49;4.20;;;3.80;;
495;SDS011;39559;48.630;9.162;2024-01-30T14:48:15;5.27;;;3.53;;
495;SDS011;39559;48.630;9.162;2024-01-30T14:50:41;4.43;;;4.03;;
495;SDS011;39559;48.630;9.162;2024-01-30T14:53:06;4.20;;;3.80;;
495;SDS011;39559;48.630;9.162;2024-01-30T14:55:32;3.80;;;3.50;;
495;SDS011;39559;48.630;9.162;2024-01-30T14:57:57;4.27;;;3.87;;
495;SDS011;39559;48.630;9.162;2024-01-30T15:00:24;4.53;;;4.13;;
495;SDS011;39559;48.630;9.162;2024-01-30T15:02:50;5.40;;;4.37;;
495;SDS011;39559;48.630;9.162;2024-01-30T15:07:23;6.03;;;4.28;;
495;SDS011;39559;48.630;9.162;2024-01-30T15:09:49;6.07;;;4.30;;
495;SDS011;39559;48.630;9.162;2024-01-30T15:12:14;6.10;;;4.80;;
495;SDS011;39559;48.630;9.162;2024-01-30T15:14:40;5.07;;;4.63;;
495;SDS011;39559;48.630;9.162;2024-01-30T15:17:05;5.40;;;4.90;;
495;SDS011;39559;48.630;9.162;2024-01-30T15:19:31;6.37;;;4.63;;
495;SDS011;39559;48.630;9.162;2024-01-30T15:21:56;5.70;;;5.00;;
495;SDS011;39559;48.630;9.162;2024-01-30T15:24:22;4.93;;;4.43;;
495;SDS011;39559;48.630;9.162;2024-01-30T15:26:50;7.20;;;5.18;;
495;SDS011;39559;48.630;9.162;2024-01-30T15:31:23;6.55;;;5.28;;
495;SDS011;39559;48.630;9.162;2024-01-30T15:33:49;5.10;;;4.33;;
495;SDS011;39559;48.630;9.162;2024-01-30T15:36:14;5.27;;;4.50;;
495;SDS011;39559;48.630;9.162;2024-01-30T15:38:40;5.83;;;4.03;;
495;SDS011;39559;48.630;9.162;2024-01-30T15:41:06;8.25;;;4.90;;
495;SDS011;39559;48.630;9.162;2024-01-30T15:43:32;4.30;;;3.87;;
495;SDS011;39559;48.630;9.162;2024-01-30T15:45:58;4.83;;;4.40;;
495;SDS011;39559;48.630;9.162;2024-01-30T15:48:26;4.60;;;4.15;;
495;SDS011;39559;48.630;9.162;2024-01-30T15:50:51;5.03;;;4.27;;
495;SDS011;39559;48.630;9.162;2024-01-30T15:55:23;5.60;;;3.97;;
495;SDS011;39559;48.630;9.162;2024-01-30T15:57:48;8.07;;;4.63;;
495;SDS011;39559;48.630;9.162;2024-01-30T16:00:14;5.30;;;4.43;;
495;SDS011;39559;48.630;9.162;2024-01-30T16:02:40;6.07;;;4.13;;
495;SDS011;39559;48.630;9.162;2024-01-30T16:05:06;4.70;;;4.07;;
495;SDS011;39559;48.630;9.162;2024-01-30T16:07:34;4.70;;;4.30;;
495;SDS011;39559;48.630;9.162;2024-01-30T16:10:00;4.30;;;3.90;;
495;SDS011;39559;48.630;9.162;2024-01-30T16:12:25;4.80;;;4.13;;
495;SDS011;39559;48.630;9.162;2024-01-30T16:14:51;5.17;;;4.00;;
495;SDS011;39559;48.630;9.162;2024-01-30T16:19:21;4.20;;;3.80;;